sensor_id;sensor_type;location;lat;lon;timestamp;temperature;humidity
5940;DHT22;2995;-31.998;115.906;2022-07-22T00:00:08;11.40;99.90
5940;DHT22;2995;-31.998;115.906;2022-07-22T00:02:40;11.40;99.90
5940;DHT22;2995;-31.998;115.906;2022-07-22T00:05:11;11.40;99.90
5940;DHT22;2995;-31.998;115.906;2022-07-22T00:07:42;11.40;99.90
5940;DHT22;2995;-31.998;115.906;2022-07-22T00:10:14;11.40;99.90
5940;DHT22;2995;-31.998;115.906;2022-07-22T00:12:45;11.40;99.90
5940;DHT22;2995;-31.998;115.906;2022-07-22T00:15:18;11.40;99.90
5940;DHT22;2995;-31.998;115.906;2022-07-22T00:17:49;11.60;99.90
5940;DHT22;2995;-31.998;115.906;2022-07-22T00:20:21;11.60;99.90
5940;DHT22;2995;-31.998;115.906;2022-07-22T00:22:52;11.70;99.90
5940;DHT22;2995;-31.998;115.906;2022-07-22T00:25:24;11.80;99.90
5940;DHT22;2995;-31.998;115.906;2022-07-22T00:27:56;11.90;99.90
5940;DHT22;2995;-31.998;115.906;2022-07-22T00:30:29;11.90;99.90
5940;DHT22;2995;-31.998;115.906;2022-07-22T00:33:00;12.00;99.90
5940;DHT22;2995;-31.998;115.906;2022-07-22T00:35:32;12.00;99.90
5940;DHT22;2995;-31.998;115.906;2022-07-22T00:38:03;12.00;99.90
5940;DHT22;2995;-31.998;115.906;2022-07-22T00:40:34;12.10;99.90
5940;DHT22;2995;-31.998;115.906;2022-07-22T00:43:06;12.10;99.90
5940;DHT22;2995;-31.998;115.906;2022-07-22T00:45:39;12.20;99.90
5940;DHT22;2995;-31.998;115.906;2022-07-22T00:48:11;12.20;99.90
5940;DHT22;2995;-31.998;115.906;2022-07-22T00:50:42;12.30;99.90
5940;DHT22;2995;-31.998;115.906;2022-07-22T00:53:14;12.30;99.90
5940;DHT22;2995;-31.998;115.906;2022-07-22T00:55:46;12.40;99.90
5940;DHT22;2995;-31.998;115.906;2022-07-22T00:58:17;12.40;99.90
5940;DHT22;2995;-31.998;115.906;2022-07-22T01:00:51;12.50;99.90
5940;DHT22;2995;-31.998;115.906;2022-07-22T01:03:23;12.50;99.90
5940;DHT22;2995;-31.998;115.906;2022-07-22T01:05:54;12.70;99.90
5940;DHT22;2995;-31.998;115.906;2022-07-22T01:08:25;12.80;99.90
5940;DHT22;2995;-31.998;115.906;2022-07-22T01:11:07;12.80;99.90
5940;DHT22;2995;-31.998;115.906;2022-07-22T01:13:38;12.80;99.90
5940;DHT22;2995;-31.998;115.906;2022-07-22T01:16:12;12.90;99.90
5940;DHT22;2995;-31.998;115.906;2022-07-22T01:18:44;13.00;99.90
5940;DHT22;2995;-31.998;115.906;2022-07-22T01:21:18;13.00;99.90
5940;DHT22;2995;-31.998;115.906;2022-07-22T01:23:49;13.00;99.90
5940;DHT22;2995;-31.998;115.906;2022-07-22T01:26:20;13.10;99.90
5940;DHT22;2995;-31.998;115.906;2022-07-22T01:28:52;13.10;99.90
5940;DHT22;2995;-31.998;115.906;2022-07-22T01:31:24;13.20;99.90
5940;DHT22;2995;-31.998;115.906;2022-07-22T01:33:56;13.20;99.90
5940;DHT22;2995;-31.998;115.906;2022-07-22T01:36:29;13.30;99.90
5940;DHT22;2995;-31.998;115.906;2022-07-22T01:39:00;13.40;99.90
5940;DHT22;2995;-31.998;115.906;2022-07-22T01:41:32;13.40;99.90
5940;DHT22;2995;-31.998;115.906;2022-07-22T01:44:03;13.50;99.90
5940;DHT22;2995;-31.998;115.906;2022-07-22T01:46:35;13.50;99.90
5940;DHT22;2995;-31.998;115.906;2022-07-22T01:49:06;13.60;99.90
5940;DHT22;2995;-31.998;115.906;2022-07-22T01:51:39;13.60;99.90
5940;DHT22;2995;-31.998;115.906;2022-07-22T01:54:10;13.70;99.90
5940;DHT22;2995;-31.998;115.906;2022-07-22T01:56:42;13.70;99.90
5940;DHT22;2995;-31.998;115.906;2022-07-22T01:59:13;13.80;99.90
5940;DHT22;2995;-31.998;115.906;2022-07-22T02:01:44;13.90;99.90
5940;DHT22;2995;-31.998;115.906;2022-07-22T02:04:15;14.00;99.90
5940;DHT22;2995;-31.998;115.906;2022-07-22T02:06:49;14.00;99.90
5940;DHT22;2995;-31.998;115.906;2022-07-22T02:09:20;14.10;99.90
5940;DHT22;2995;-31.998;115.906;2022-07-22T02:11:51;14.10;99.90
5940;DHT22;2995;-31.998;115.906;2022-07-22T02:14:22;14.10;99.90
5940;DHT22;2995;-31.998;115.906;2022-07-22T02:16:54;14.20;99.90
5940;DHT22;2995;-31.998;115.906;2022-07-22T02:19:25;14.20;99.90
5940;DHT22;2995;-31.998;115.906;2022-07-22T02:21:58;14.40;99.90
5940;DHT22;2995;-31.998;115.906;2022-07-22T02:24:29;14.40;99.90
5940;DHT22;2995;-31.998;115.906;2022-07-22T02:27:01;14.50;99.90
5940;DHT22;2995;-31.998;115.906;2022-07-22T02:29:32;14.60;99.90
5940;DHT22;2995;-31.998;115.906;2022-07-22T02:32:04;14.70;99.90
5940;DHT22;2995;-31.998;115.906;2022-07-22T02:34:36;14.80;99.90
5940;DHT22;2995;-31.998;115.906;2022-07-22T02:37:09;14.90;99.90
5940;DHT22;2995;-31.998;115.906;2022-07-22T02:39:40;15.10;99.90
5940;DHT22;2995;-31.998;115.906;2022-07-22T02:44:42;15.20;99.90
5940;DHT22;2995;-31.998;115.906;2022-07-22T02:47:13;15.30;99.90
5940;DHT22;2995;-31.998;115.906;2022-07-22T02:49:44;15.40;99.90
5940;DHT22;2995;-31.998;115.906;2022-07-22T02:52:17;15.40;99.90
5940;DHT22;2995;-31.998;115.906;2022-07-22T02:54:49;15.40;99.90
5940;DHT22;2995;-31.998;115.906;2022-07-22T02:57:20;15.60;99.90
5940;DHT22;2995;-31.998;115.906;2022-07-22T02:59:51;15.60;99.90
5940;DHT22;2995;-31.998;115.906;2022-07-22T03:02:22;15.80;99.90
5940;DHT22;2995;-31.998;115.906;2022-07-22T03:04:54;15.80;99.90
5940;DHT22;2995;-31.998;115.906;2022-07-22T03:07:27;15.80;99.90
5940;DHT22;2995;-31.998;115.906;2022-07-22T03:09:58;15.90;99.90
5940;DHT22;2995;-31.998;115.906;2022-07-22T03:12:35;16.10;99.90
5940;DHT22;2995;-31.998;115.906;2022-07-22T03:15:07;16.10;99.90
5940;DHT22;2995;-31.998;115.906;2022-07-22T03:17:38;16.20;99.90
5940;DHT22;2995;-31.998;115.906;2022-07-22T03:20:11;16.40;99.90
5940;DHT22;2995;-31.998;115.906;2022-07-22T03:22:44;16.60;99.90
5940;DHT22;2995;-31.998;115.906;2022-07-22T03:25:15;16.60;99.90
5940;DHT22;2995;-31.998;115.906;2022-07-22T03:27:47;16.60;99.90
5940;DHT22;2995;-31.998;115.906;2022-07-22T03:30:18;16.60;99.90
5940;DHT22;2995;-31.998;115.906;2022-07-22T03:32:50;16.60;99.90
5940;DHT22;2995;-31.998;115.906;2022-07-22T03:35:21;16.60;99.90
5940;DHT22;2995;-31.998;115.906;2022-07-22T03:37:54;16.60;99.90
5940;DHT22;2995;-31.998;115.906;2022-07-22T03:40:25;16.60;99.90
5940;DHT22;2995;-31.998;115.906;2022-07-22T03:42:57;16.70;99.90
5940;DHT22;2995;-31.998;115.906;2022-07-22T03:45:28;16.70;99.90
5940;DHT22;2995;-31.998;115.906;2022-07-22T03:47:59;16.60;99.90
5940;DHT22;2995;-31.998;115.906;2022-07-22T03:50:30;16.60;99.90
5940;DHT22;2995;-31.998;115.906;2022-07-22T03:53:04;16.60;99.90
5940;DHT22;2995;-31.998;115.906;2022-07-22T03:55:35;16.50;99.90
5940;DHT22;2995;-31.998;115.906;2022-07-22T03:58:06;16.50;99.90
5940;DHT22;2995;-31.998;115.906;2022-07-22T04:00:38;16.50;99.90
5940;DHT22;2995;-31.998;115.906;2022-07-22T04:03:09;16.50;99.90
5940;DHT22;2995;-31.998;115.906;2022-07-22T04:05:40;16.50;99.90
5940;DHT22;2995;-31.998;115.906;2022-07-22T04:08:14;16.50;99.90
5940;DHT22;2995;-31.998;115.906;2022-07-22T04:10:47;16.50;99.90
5940;DHT22;2995;-31.998;115.906;2022-07-22T04:13:18;16.50;99.90
5940;DHT22;2995;-31.998;115.906;2022-07-22T04:15:49;16.50;99.90
5940;DHT22;2995;-31.998;115.906;2022-07-22T04:18:20;16.40;99.90
5940;DHT22;2995;-31.998;115.906;2022-07-22T04:20:51;16.40;99.90
5940;DHT22;2995;-31.998;115.906;2022-07-22T04:23:25;16.40;99.90
5940;DHT22;2995;-31.998;115.906;2022-07-22T04:25:56;16.40;99.90
5940;DHT22;2995;-31.998;115.906;2022-07-22T04:28:27;16.40;99.90
5940;DHT22;2995;-31.998;115.906;2022-07-22T04:30:59;16.40;99.90
5940;DHT22;2995;-31.998;115.906;2022-07-22T04:33:30;16.30;99.90
5940;DHT22;2995;-31.998;115.906;2022-07-22T04:36:01;16.30;99.90
5940;DHT22;2995;-31.998;115.906;2022-07-22T04:38:34;16.30;99.90
5940;DHT22;2995;-31.998;115.906;2022-07-22T04:41:06;16.30;99.90
5940;DHT22;2995;-31.998;115.906;2022-07-22T04:43:37;16.30;99.90
5940;DHT22;2995;-31.998;115.906;2022-07-22T04:46:09;16.40;99.90
5940;DHT22;2995;-31.998;115.906;2022-07-22T04:48:40;16.50;99.90
5940;DHT22;2995;-31.998;115.906;2022-07-22T04:51:11;16.50;99.90
5940;DHT22;2995;-31.998;115.906;2022-07-22T04:53:45;16.50;99.90
5940;DHT22;2995;-31.998;115.906;2022-07-22T04:56:16;16.60;99.90
5940;DHT22;2995;-31.998;115.906;2022-07-22T04:58:47;16.70;99.90
5940;DHT22;2995;-31.998;115.906;2022-07-22T05:01:19;16.80;99.90
5940;DHT22;2995;-31.998;115.906;2022-07-22T05:03:50;16.50;99.90
5940;DHT22;2995;-31.998;115.906;2022-07-22T05:06:22;16.40;99.90
5940;DHT22;2995;-31.998;115.906;2022-07-22T05:08:55;16.40;99.90
5940;DHT22;2995;-31.998;115.906;2022-07-22T05:11:26;16.40;99.90
5940;DHT22;2995;-31.998;115.906;2022-07-22T05:13:57;16.50;99.90
5940;DHT22;2995;-31.998;115.906;2022-07-22T05:16:29;16.40;99.90
5940;DHT22;2995;-31.998;115.906;2022-07-22T05:19:00;16.50;99.90
5940;DHT22;2995;-31.998;115.906;2022-07-22T05:21:31;16.60;99.90
5940;DHT22;2995;-31.998;115.906;2022-07-22T05:24:05;16.60;99.90
5940;DHT22;2995;-31.998;115.906;2022-07-22T05:26:36;16.70;99.90
5940;DHT22;2995;-31.998;115.906;2022-07-22T05:29:08;16.70;99.90
5940;DHT22;2995;-31.998;115.906;2022-07-22T05:31:39;16.80;99.90
5940;DHT22;2995;-31.998;115.906;2022-07-22T05:34:10;16.80;99.90
5940;DHT22;2995;-31.998;115.906;2022-07-22T05:36:41;16.80;99.90
5940;DHT22;2995;-31.998;115.906;2022-07-22T05:39:15;16.90;99.90
5940;DHT22;2995;-31.998;115.906;2022-07-22T05:41:46;16.80;99.90
5940;DHT22;2995;-31.998;115.906;2022-07-22T05:44:17;16.80;99.90
5940;DHT22;2995;-31.998;115.906;2022-07-22T05:46:48;16.90;99.90
5940;DHT22;2995;-31.998;115.906;2022-07-22T05:49:20;16.80;99.90
5940;DHT22;2995;-31.998;115.906;2022-07-22T05:51:53;16.90;99.90
5940;DHT22;2995;-31.998;115.906;2022-07-22T05:54:28;16.90;99.90
5940;DHT22;2995;-31.998;115.906;2022-07-22T05:56:59;16.90;99.90
5940;DHT22;2995;-31.998;115.906;2022-07-22T05:59:30;16.90;99.90
5940;DHT22;2995;-31.998;115.906;2022-07-22T06:02:02;16.90;99.90
5940;DHT22;2995;-31.998;115.906;2022-07-22T06:04:33;16.90;99.90
5940;DHT22;2995;-31.998;115.906;2022-07-22T06:07:04;16.90;99.90
5940;DHT22;2995;-31.998;115.906;2022-07-22T06:09:37;16.90;99.90
5940;DHT22;2995;-31.998;115.906;2022-07-22T06:12:09;17.00;99.90
5940;DHT22;2995;-31.998;115.906;2022-07-22T06:14:40;17.10;99.90
5940;DHT22;2995;-31.998;115.906;2022-07-22T06:17:11;17.00;99.90
5940;DHT22;2995;-31.998;115.906;2022-07-22T06:19:43;17.00;99.90
5940;DHT22;2995;-31.998;115.906;2022-07-22T06:22:14;17.10;99.90
5940;DHT22;2995;-31.998;115.906;2022-07-22T06:24:48;17.20;99.90
5940;DHT22;2995;-31.998;115.906;2022-07-22T06:27:19;17.30;99.90
5940;DHT22;2995;-31.998;115.906;2022-07-22T06:29:50;17.30;99.90
5940;DHT22;2995;-31.998;115.906;2022-07-22T06:32:21;17.20;99.90
5940;DHT22;2995;-31.998;115.906;2022-07-22T06:34:53;17.30;99.90
5940;DHT22;2995;-31.998;115.906;2022-07-22T06:37:24;17.20;99.90
5940;DHT22;2995;-31.998;115.906;2022-07-22T06:39:57;17.10;99.90
5940;DHT22;2995;-31.998;115.906;2022-07-22T06:42:28;17.10;99.90
5940;DHT22;2995;-31.998;115.906;2022-07-22T06:45:00;17.00;99.90
5940;DHT22;2995;-31.998;115.906;2022-07-22T06:47:31;16.90;99.90
5940;DHT22;2995;-31.998;115.906;2022-07-22T06:50:03;16.80;99.90
5940;DHT22;2995;-31.998;115.906;2022-07-22T06:52:35;16.80;99.90
5940;DHT22;2995;-31.998;115.906;2022-07-22T06:55:11;16.80;99.90
5940;DHT22;2995;-31.998;115.906;2022-07-22T06:57:43;16.70;99.90
5940;DHT22;2995;-31.998;115.906;2022-07-22T07:00:15;16.80;99.90
5940;DHT22;2995;-31.998;115.906;2022-07-22T07:02:46;16.80;99.90
5940;DHT22;2995;-31.998;115.906;2022-07-22T07:05:18;16.80;99.90
5940;DHT22;2995;-31.998;115.906;2022-07-22T07:07:49;16.80;99.90
5940;DHT22;2995;-31.998;115.906;2022-07-22T07:10:23;16.80;99.90
5940;DHT22;2995;-31.998;115.906;2022-07-22T07:12:57;16.80;99.90
5940;DHT22;2995;-31.998;115.906;2022-07-22T07:15:28;16.70;99.90
5940;DHT22;2995;-31.998;115.906;2022-07-22T07:17:59;16.70;99.90
5940;DHT22;2995;-31.998;115.906;2022-07-22T07:20:30;16.70;99.90
5940;DHT22;2995;-31.998;115.906;2022-07-22T07:23:02;16.70;99.90
5940;DHT22;2995;-31.998;115.906;2022-07-22T07:25:35;16.70;99.90
5940;DHT22;2995;-31.998;115.906;2022-07-22T07:28:07;16.70;99.90
5940;DHT22;2995;-31.998;115.906;2022-07-22T07:30:38;16.70;99.90
5940;DHT22;2995;-31.998;115.906;2022-07-22T07:33:09;16.60;99.90
5940;DHT22;2995;-31.998;115.906;2022-07-22T07:35:41;16.60;99.90
5940;DHT22;2995;-31.998;115.906;2022-07-22T07:38:12;16.60;99.90
5940;DHT22;2995;-31.998;115.906;2022-07-22T07:40:45;16.60;99.90
5940;DHT22;2995;-31.998;115.906;2022-07-22T07:43:17;16.60;99.90
5940;DHT22;2995;-31.998;115.906;2022-07-22T07:45:48;16.50;99.90
5940;DHT22;2995;-31.998;115.906;2022-07-22T07:48:20;16.40;99.90
5940;DHT22;2995;-31.998;115.906;2022-07-22T07:50:51;16.40;99.90
5940;DHT22;2995;-31.998;115.906;2022-07-22T07:53:22;16.40;99.90
5940;DHT22;2995;-31.998;115.906;2022-07-22T07:55:56;16.30;99.90
5940;DHT22;2995;-31.998;115.906;2022-07-22T07:58:27;16.30;99.90
5940;DHT22;2995;-31.998;115.906;2022-07-22T08:01:00;16.30;99.90
5940;DHT22;2995;-31.998;115.906;2022-07-22T08:03:31;16.20;99.90
5940;DHT22;2995;-31.998;115.906;2022-07-22T08:06:02;16.10;99.90
5940;DHT22;2995;-31.998;115.906;2022-07-22T08:08:33;16.10;99.90
5940;DHT22;2995;-31.998;115.906;2022-07-22T08:11:08;16.10;99.90
5940;DHT22;2995;-31.998;115.906;2022-07-22T08:13:39;16.00;99.90
5940;DHT22;2995;-31.998;115.906;2022-07-22T08:16:10;16.00;99.90
5940;DHT22;2995;-31.998;115.906;2022-07-22T08:18:41;16.00;99.90
5940;DHT22;2995;-31.998;115.906;2022-07-22T08:21:13;16.10;99.90
5940;DHT22;2995;-31.998;115.906;2022-07-22T08:23:44;16.10;99.90
5940;DHT22;2995;-31.998;115.906;2022-07-22T08:26:17;16.10;99.90
5940;DHT22;2995;-31.998;115.906;2022-07-22T08:28:48;16.10;99.90
5940;DHT22;2995;-31.998;115.906;2022-07-22T08:31:20;16.10;99.90
5940;DHT22;2995;-31.998;115.906;2022-07-22T08:33:51;16.10;99.90
5940;DHT22;2995;-31.998;115.906;2022-07-22T08:36:22;16.10;99.90
5940;DHT22;2995;-31.998;115.906;2022-07-22T08:38:54;16.10;99.90
5940;DHT22;2995;-31.998;115.906;2022-07-22T08:41:27;16.10;99.90
5940;DHT22;2995;-31.998;115.906;2022-07-22T08:44:02;16.10;99.90
5940;DHT22;2995;-31.998;115.906;2022-07-22T08:46:34;16.20;99.90
5940;DHT22;2995;-31.998;115.906;2022-07-22T08:49:06;16.10;99.90
5940;DHT22;2995;-31.998;115.906;2022-07-22T08:51:38;16.00;99.90
5940;DHT22;2995;-31.998;115.906;2022-07-22T08:54:10;16.00;99.90
5940;DHT22;2995;-31.998;115.906;2022-07-22T08:56:45;16.00;99.90
5940;DHT22;2995;-31.998;115.906;2022-07-22T08:59:17;16.00;99.90
5940;DHT22;2995;-31.998;115.906;2022-07-22T09:02:05;16.00;99.90
5940;DHT22;2995;-31.998;115.906;2022-07-22T09:04:52;16.10;99.90
5940;DHT22;2995;-31.998;115.906;2022-07-22T09:07:30;16.00;99.90
5940;DHT22;2995;-31.998;115.906;2022-07-22T09:10:04;16.00;99.90
5940;DHT22;2995;-31.998;115.906;2022-07-22T09:12:51;16.00;99.90
5940;DHT22;2995;-31.998;115.906;2022-07-22T09:15:28;15.90;99.90
5940;DHT22;2995;-31.998;115.906;2022-07-22T09:18:00;15.80;99.90
5940;DHT22;2995;-31.998;115.906;2022-07-22T09:20:32;15.80;99.90
5940;DHT22;2995;-31.998;115.906;2022-07-22T09:23:10;15.80;99.90
5940;DHT22;2995;-31.998;115.906;2022-07-22T09:25:42;15.90;99.90
5940;DHT22;2995;-31.998;115.906;2022-07-22T09:28:18;15.80;99.90
5940;DHT22;2995;-31.998;115.906;2022-07-22T09:30:51;15.80;99.90
5940;DHT22;2995;-31.998;115.906;2022-07-22T09:33:22;15.80;99.90
5940;DHT22;2995;-31.998;115.906;2022-07-22T09:36:02;15.80;99.90
5940;DHT22;2995;-31.998;115.906;2022-07-22T09:38:33;15.70;99.90
5940;DHT22;2995;-31.998;115.906;2022-07-22T09:41:05;15.70;99.90
5940;DHT22;2995;-31.998;115.906;2022-07-22T09:43:38;15.70;99.90
5940;DHT22;2995;-31.998;115.906;2022-07-22T09:46:10;15.60;99.90
5940;DHT22;2995;-31.998;115.906;2022-07-22T09:48:42;15.50;99.90
5940;DHT22;2995;-31.998;115.906;2022-07-22T09:51:13;15.50;99.90
5940;DHT22;2995;-31.998;115.906;2022-07-22T09:53:49;15.40;99.90
5940;DHT22;2995;-31.998;115.906;2022-07-22T09:56:21;15.40;99.90
5940;DHT22;2995;-31.998;115.906;2022-07-22T09:58:55;15.30;99.90
5940;DHT22;2995;-31.998;115.906;2022-07-22T10:01:27;15.30;99.90
5940;DHT22;2995;-31.998;115.906;2022-07-22T10:03:58;15.20;99.90
5940;DHT22;2995;-31.998;115.906;2022-07-22T10:06:30;15.10;99.90
5940;DHT22;2995;-31.998;115.906;2022-07-22T10:09:02;15.10;99.90
5940;DHT22;2995;-31.998;115.906;2022-07-22T10:11:34;15.10;99.90
5940;DHT22;2995;-31.998;115.906;2022-07-22T10:14:14;15.10;99.90
5940;DHT22;2995;-31.998;115.906;2022-07-22T10:16:48;15.00;99.90
5940;DHT22;2995;-31.998;115.906;2022-07-22T10:19:19;15.10;99.90
5940;DHT22;2995;-31.998;115.906;2022-07-22T10:21:51;15.10;99.90
5940;DHT22;2995;-31.998;115.906;2022-07-22T10:24:22;15.10;99.90
5940;DHT22;2995;-31.998;115.906;2022-07-22T10:26:54;15.10;99.90
5940;DHT22;2995;-31.998;115.906;2022-07-22T10:29:30;15.10;99.90
5940;DHT22;2995;-31.998;115.906;2022-07-22T10:32:23;15.00;99.90
5940;DHT22;2995;-31.998;115.906;2022-07-22T10:35:23;15.00;99.90
5940;DHT22;2995;-31.998;115.906;2022-07-22T10:38:03;15.00;99.90
5940;DHT22;2995;-31.998;115.906;2022-07-22T10:40:48;15.10;99.90
5940;DHT22;2995;-31.998;115.906;2022-07-22T10:43:20;15.00;99.90
5940;DHT22;2995;-31.998;115.906;2022-07-22T10:45:55;15.00;99.90
5940;DHT22;2995;-31.998;115.906;2022-07-22T10:48:45;15.10;99.90
5940;DHT22;2995;-31.998;115.906;2022-07-22T10:51:18;15.00;99.90
5940;DHT22;2995;-31.998;115.906;2022-07-22T10:53:54;15.00;99.90
5940;DHT22;2995;-31.998;115.906;2022-07-22T10:56:27;15.10;99.90
5940;DHT22;2995;-31.998;115.906;2022-07-22T10:59:07;15.00;99.90
5940;DHT22;2995;-31.998;115.906;2022-07-22T11:01:44;15.00;99.90
5940;DHT22;2995;-31.998;115.906;2022-07-22T11:04:17;15.00;99.90
5940;DHT22;2995;-31.998;115.906;2022-07-22T11:06:50;15.00;99.90
5940;DHT22;2995;-31.998;115.906;2022-07-22T11:09:23;15.00;99.90
5940;DHT22;2995;-31.998;115.906;2022-07-22T11:11:55;14.90;99.90
5940;DHT22;2995;-31.998;115.906;2022-07-22T11:14:29;14.90;99.90
5940;DHT22;2995;-31.998;115.906;2022-07-22T11:17:08;14.90;99.90
5940;DHT22;2995;-31.998;115.906;2022-07-22T11:19:41;14.90;99.90
5940;DHT22;2995;-31.998;115.906;2022-07-22T11:22:13;14.80;99.90
5940;DHT22;2995;-31.998;115.906;2022-07-22T11:24:49;14.80;99.90
5940;DHT22;2995;-31.998;115.906;2022-07-22T11:30:42;14.80;99.90
5940;DHT22;2995;-31.998;115.906;2022-07-22T11:33:15;14.80;99.90
5940;DHT22;2995;-31.998;115.906;2022-07-22T11:36:04;14.80;99.90
5940;DHT22;2995;-31.998;115.906;2022-07-22T11:38:45;14.70;99.90
5940;DHT22;2995;-31.998;115.906;2022-07-22T11:41:17;14.70;99.90
5940;DHT22;2995;-31.998;115.906;2022-07-22T11:43:50;14.70;99.90
5940;DHT22;2995;-31.998;115.906;2022-07-22T11:46:21;14.60;99.90
5940;DHT22;2995;-31.998;115.906;2022-07-22T11:48:56;14.70;99.90
5940;DHT22;2995;-31.998;115.906;2022-07-22T11:51:30;14.60;99.90
5940;DHT22;2995;-31.998;115.906;2022-07-22T11:54:01;14.60;99.90
5940;DHT22;2995;-31.998;115.906;2022-07-22T11:56:33;14.60;99.90
5940;DHT22;2995;-31.998;115.906;2022-07-22T11:59:05;14.50;99.90
5940;DHT22;2995;-31.998;115.906;2022-07-22T12:01:38;14.50;99.90
5940;DHT22;2995;-31.998;115.906;2022-07-22T12:04:14;14.50;99.90
5940;DHT22;2995;-31.998;115.906;2022-07-22T12:06:46;14.50;99.90
5940;DHT22;2995;-31.998;115.906;2022-07-22T12:09:21;14.40;99.90
5940;DHT22;2995;-31.998;115.906;2022-07-22T12:11:53;14.40;99.90
5940;DHT22;2995;-31.998;115.906;2022-07-22T12:14:27;14.40;99.90
5940;DHT22;2995;-31.998;115.906;2022-07-22T12:17:00;14.40;99.90
5940;DHT22;2995;-31.998;115.906;2022-07-22T12:19:34;14.40;99.90
5940;DHT22;2995;-31.998;115.906;2022-07-22T12:22:07;14.40;99.90
5940;DHT22;2995;-31.998;115.906;2022-07-22T12:24:39;14.40;99.90
5940;DHT22;2995;-31.998;115.906;2022-07-22T12:27:11;14.40;99.90
5940;DHT22;2995;-31.998;115.906;2022-07-22T12:29:46;14.40;99.90
5940;DHT22;2995;-31.998;115.906;2022-07-22T12:32:23;14.40;99.90
5940;DHT22;2995;-31.998;115.906;2022-07-22T12:34:59;14.40;99.90
5940;DHT22;2995;-31.998;115.906;2022-07-22T12:37:33;14.40;99.90
5940;DHT22;2995;-31.998;115.906;2022-07-22T12:40:06;14.40;99.90
5940;DHT22;2995;-31.998;115.906;2022-07-22T12:42:40;14.50;99.90
5940;DHT22;2995;-31.998;115.906;2022-07-22T12:45:12;14.40;99.90
5940;DHT22;2995;-31.998;115.906;2022-07-22T12:47:49;14.40;99.90
5940;DHT22;2995;-31.998;115.906;2022-07-22T12:50:24;14.40;99.90
5940;DHT22;2995;-31.998;115.906;2022-07-22T12:52:57;14.40;99.90
5940;DHT22;2995;-31.998;115.906;2022-07-22T12:55:31;14.40;99.90
5940;DHT22;2995;-31.998;115.906;2022-07-22T12:58:05;14.40;99.90
5940;DHT22;2995;-31.998;115.906;2022-07-22T13:00:37;14.30;99.90
5940;DHT22;2995;-31.998;115.906;2022-07-22T13:03:09;14.30;99.90
5940;DHT22;2995;-31.998;115.906;2022-07-22T13:05:42;14.30;99.90
5940;DHT22;2995;-31.998;115.906;2022-07-22T13:08:13;14.40;99.90
5940;DHT22;2995;-31.998;115.906;2022-07-22T13:10:45;14.40;99.90
5940;DHT22;2995;-31.998;115.906;2022-07-22T13:13:16;14.40;99.90
5940;DHT22;2995;-31.998;115.906;2022-07-22T13:15:47;14.30;99.90
5940;DHT22;2995;-31.998;115.906;2022-07-22T13:18:20;14.30;99.90
5940;DHT22;2995;-31.998;115.906;2022-07-22T13:20:53;14.30;99.90
5940;DHT22;2995;-31.998;115.906;2022-07-22T13:23:24;14.30;99.90
5940;DHT22;2995;-31.998;115.906;2022-07-22T13:25:56;14.20;99.90
5940;DHT22;2995;-31.998;115.906;2022-07-22T13:28:27;14.20;99.90
5940;DHT22;2995;-31.998;115.906;2022-07-22T13:30:59;14.20;99.90
5940;DHT22;2995;-31.998;115.906;2022-07-22T13:33:30;14.10;99.90
5940;DHT22;2995;-31.998;115.906;2022-07-22T13:36:04;14.00;99.90
5940;DHT22;2995;-31.998;115.906;2022-07-22T13:38:35;14.00;99.90
5940;DHT22;2995;-31.998;115.906;2022-07-22T13:41:06;14.00;99.90
5940;DHT22;2995;-31.998;115.906;2022-07-22T13:43:45;14.00;99.90
5940;DHT22;2995;-31.998;115.906;2022-07-22T13:46:17;14.00;99.90
5940;DHT22;2995;-31.998;115.906;2022-07-22T13:48:48;13.90;99.90
5940;DHT22;2995;-31.998;115.906;2022-07-22T13:51:21;13.90;99.90
5940;DHT22;2995;-31.998;115.906;2022-07-22T13:53:53;13.90;99.90
5940;DHT22;2995;-31.998;115.906;2022-07-22T13:56:24;13.90;99.90
5940;DHT22;2995;-31.998;115.906;2022-07-22T13:58:55;13.90;99.90
5940;DHT22;2995;-31.998;115.906;2022-07-22T14:01:27;13.90;99.90
5940;DHT22;2995;-31.998;115.906;2022-07-22T14:03:59;13.90;99.90
5940;DHT22;2995;-31.998;115.906;2022-07-22T14:06:34;13.80;99.90
5940;DHT22;2995;-31.998;115.906;2022-07-22T14:09:05;13.90;99.90
5940;DHT22;2995;-31.998;115.906;2022-07-22T14:11:37;13.80;99.90
5940;DHT22;2995;-31.998;115.906;2022-07-22T14:14:09;13.80;99.90
5940;DHT22;2995;-31.998;115.906;2022-07-22T14:16:41;13.90;99.90
5940;DHT22;2995;-31.998;115.906;2022-07-22T14:19:14;13.90;99.90
5940;DHT22;2995;-31.998;115.906;2022-07-22T14:21:48;13.90;99.90
5940;DHT22;2995;-31.998;115.906;2022-07-22T14:24:19;13.80;99.90
5940;DHT22;2995;-31.998;115.906;2022-07-22T14:26:50;13.80;99.90
5940;DHT22;2995;-31.998;115.906;2022-07-22T14:29:22;13.80;99.90
5940;DHT22;2995;-31.998;115.906;2022-07-22T14:31:53;13.80;99.90
5940;DHT22;2995;-31.998;115.906;2022-07-22T14:34:24;13.80;99.90
5940;DHT22;2995;-31.998;115.906;2022-07-22T14:36:57;13.70;99.90
5940;DHT22;2995;-31.998;115.906;2022-07-22T14:39:29;13.70;99.90
5940;DHT22;2995;-31.998;115.906;2022-07-22T14:42:00;13.70;99.90
5940;DHT22;2995;-31.998;115.906;2022-07-22T14:44:32;13.70;99.90
5940;DHT22;2995;-31.998;115.906;2022-07-22T14:47:03;13.70;99.90
5940;DHT22;2995;-31.998;115.906;2022-07-22T14:49:34;13.70;99.90
5940;DHT22;2995;-31.998;115.906;2022-07-22T14:52:07;13.70;99.90
5940;DHT22;2995;-31.998;115.906;2022-07-22T14:54:39;13.70;99.90
5940;DHT22;2995;-31.998;115.906;2022-07-22T14:57:10;13.80;99.90
5940;DHT22;2995;-31.998;115.906;2022-07-22T14:59:42;13.80;99.90
5940;DHT22;2995;-31.998;115.906;2022-07-22T15:02:14;13.70;99.90
5940;DHT22;2995;-31.998;115.906;2022-07-22T15:04:45;13.70;99.90
5940;DHT22;2995;-31.998;115.906;2022-07-22T15:07:18;13.70;99.90
5940;DHT22;2995;-31.998;115.906;2022-07-22T15:09:50;13.60;99.90
5940;DHT22;2995;-31.998;115.906;2022-07-22T15:12:21;13.60;99.90
5940;DHT22;2995;-31.998;115.906;2022-07-22T15:14:52;13.60;99.90
5940;DHT22;2995;-31.998;115.906;2022-07-22T15:17:23;13.50;99.90
5940;DHT22;2995;-31.998;115.906;2022-07-22T15:19:55;13.60;99.90
5940;DHT22;2995;-31.998;115.906;2022-07-22T15:22:28;13.60;99.90
5940;DHT22;2995;-31.998;115.906;2022-07-22T15:24:59;13.50;99.90
5940;DHT22;2995;-31.998;115.906;2022-07-22T15:27:30;13.50;99.90
5940;DHT22;2995;-31.998;115.906;2022-07-22T15:30:06;13.50;99.90
5940;DHT22;2995;-31.998;115.906;2022-07-22T15:32:38;13.40;99.90
5940;DHT22;2995;-31.998;115.906;2022-07-22T15:35:09;13.40;99.90
5940;DHT22;2995;-31.998;115.906;2022-07-22T15:37:42;13.40;99.90
5940;DHT22;2995;-31.998;115.906;2022-07-22T15:40:14;13.30;99.90
5940;DHT22;2995;-31.998;115.906;2022-07-22T15:42:45;13.30;99.90
5940;DHT22;2995;-31.998;115.906;2022-07-22T15:45:16;13.40;99.90
5940;DHT22;2995;-31.998;115.906;2022-07-22T15:47:47;13.40;99.90
5940;DHT22;2995;-31.998;115.906;2022-07-22T15:50:19;13.30;99.90
5940;DHT22;2995;-31.998;115.906;2022-07-22T15:52:53;13.30;99.90